Time;durP1;ratioP1;P1;durP2;ratioP2;P2;SDS_P1;SDS_P2;PMS_P1;PMS_P2;Temp;Humidity;BMP_temperature;BMP_pressure;BME280_temperature;BME280_humidity;BME280_pressure;Samples;Min_cycle;Max_cycle;Signal;HPM_P1;HPM_P2
2022/02/08 00:01:21;;;;;;;7.80;2.30;;;3.30;68.30;;;;;;5026171;28;20493;-86
2022/02/08 00:03:48;;;;;;;5.50;2.93;;;3.20;68.40;;;;;;5026471;28;20032;-85
2022/02/08 00:08:49;;;;;;;7.70;2.67;;;3.20;68.70;;;;;;5032486;28;20495;-85
2022/02/08 00:11:15;;;;;;;3.30;1.60;;;3.20;68.60;;;;;;5030173;28;20120;-85
2022/02/08 00:13:40;;;;;;;3.77;1.57;;;3.20;68.40;;;;;;5029005;28;20029;-85
2022/02/08 00:16:06;;;;;;;6.87;1.67;;;3.10;68.00;;;;;;5029889;28;20078;-85
2022/02/08 00:18:32;;;;;;;6.10;1.90;;;3.00;68.30;;;;;;5031071;28;20026;-85
2022/02/08 00:20:58;;;;;;;4.53;1.53;;;3.00;68.40;;;;;;5029234;28;20047;-85
2022/02/08 00:23:27;;;;;;;4.33;2.03;;;2.90;68.40;;;;;;5030299;28;20369;-85
2022/02/08 00:25:54;;;;;;;11.00;2.97;;;2.90;68.60;;;;;;5029760;28;20389;-85
2022/02/08 00:28:19;;;;;;;9.13;3.77;;;3.00;68.40;;;;;;5031883;28;20025;-85
2022/02/08 00:30:45;;;;;;;7.00;3.23;;;2.90;68.00;;;;;;5026309;28;20440;-85
2022/02/08 00:33:11;;;;;;;10.17;3.70;;;2.90;68.30;;;;;;5027005;28;20400;-86
2022/02/08 00:35:36;;;;;;;6.80;2.57;;;2.90;68.40;;;;;;5028998;28;20022;-85
2022/02/08 00:38:02;;;;;;;5.90;1.80;;;2.80;68.10;;;;;;5024106;28;20277;-85
2022/02/08 00:40:28;;;;;;;6.53;1.77;;;2.80;68.40;;;;;;5025890;28;20051;-85
2022/02/08 00:42:54;;;;;;;4.43;1.50;;;2.80;68.20;;;;;;5025646;28;20037;-85
2022/02/08 00:45:49;;;;;;;6.67;1.50;;;2.70;68.30;;;;;;5025359;28;20037;-85
2022/02/08 00:48:25;;;;;;;4.73;2.03;;;2.80;68.30;;;;;;5024932;28;20504;-85
2022/02/08 00:50:51;;;;;;;8.70;3.20;;;2.80;68.10;;;;;;5022181;28;20065;-85
2022/02/08 00:53:17;;;;;;;8.03;2.33;;;2.80;67.80;;;;;;5030042;28;20021;-84
2022/02/08 00:55:44;;;;;;;4.57;2.63;;;2.80;67.60;;;;;;5025086;28;20370;-85
2022/02/08 00:58:09;;;;;;;4.20;2.90;;;2.80;67.70;;;;;;5031852;28;20029;-85
2022/02/08 01:00:36;;;;;;;4.50;2.27;;;2.80;67.70;;;;;;5022287;28;22110;-85
2022/02/08 01:03:04;;;;;;;5.10;2.17;;;2.70;67.50;;;;;;5028279;28;20120;-85
2022/02/08 01:05:29;;;;;;;5.40;3.30;;;2.70;67.40;;;;;;5021459;28;20046;-85
2022/02/08 01:07:56;;;;;;;8.47;3.23;;;2.70;67.30;;;;;;5029634;28;20460;-85
2022/02/08 01:10:23;;;;;;;5.73;2.73;;;2.70;67.40;;;;;;5019096;28;20025;-85
2022/02/08 01:12:49;;;;;;;5.60;1.90;;;2.60;67.60;;;;;;5023782;28;20325;-85
2022/02/08 01:15:16;;;;;;;14.40;9.37;;;2.60;67.40;;;;;;5027332;28;20030;-85
2022/02/08 01:17:44;;;;;;;5.57;4.33;;;2.50;67.30;;;;;;5025821;28;20184;-85
2022/02/08 01:20:15;;;;;;;6.80;3.07;;;2.60;67.50;;;;;;5026040;28;20392;-85
2022/02/08 01:22:42;;;;;;;13.33;4.23;;;2.50;67.20;;;;;;5024711;28;20033;-85
2022/02/08 01:25:15;;;;;;;5.47;2.33;;;2.50;67.00;;;;;;5020680;28;20033;-85
2022/02/08 01:27:48;;;;;;;4.87;1.90;;;2.40;66.80;;;;;;5020256;28;20029;-85
2022/02/08 01:30:27;;;;;;;5.43;1.87;;;2.40;67.10;;;;;;5021344;28;20033;-85
2022/02/08 01:38:12;;;;;;;70.97;4.57;;;2.40;67.00;;;;;;5027804;28;20040;-85
2022/02/08 01:46:13;;;;;;;4.87;2.07;;;2.30;66.60;;;;;;5029273;28;20041;-85
2022/02/08 01:48:50;;;;;;;6.53;1.87;;;2.30;66.40;;;;;;5020442;28;20037;-85
2022/02/08 01:51:16;;;;;;;5.73;2.10;;;2.20;66.60;;;;;;5021317;28;20041;-85
2022/02/08 01:53:43;;;;;;;4.57;1.20;;;2.20;66.70;;;;;;5025514;28;20025;-85
2022/02/08 01:56:09;;;;;;;7.37;1.70;;;2.20;66.50;;;;;;5028168;28;20425;-85
2022/02/08 01:58:34;;;;;;;3.40;1.20;;;2.20;66.50;;;;;;5019603;28;20108;-85
2022/02/08 02:01:00;;;;;;;4.50;1.10;;;2.10;66.70;;;;;;5022361;28;20108;-85
2022/02/08 02:03:26;;;;;;;6.60;1.23;;;2.10;66.80;;;;;;5017671;28;20032;-85
2022/02/08 02:05:52;;;;;;;4.80;1.43;;;2.10;66.60;;;;;;5023573;28;20116;-85
2022/02/08 02:08:19;;;;;;;5.13;1.43;;;2.00;66.70;;;;;;5023770;28;20025;-85
2022/02/08 02:10:45;;;;;;;3.20;1.20;;;2.00;66.80;;;;;;5016062;28;20040;-85
2022/02/08 02:13:25;;;;;;;5.53;1.93;;;2.00;66.70;;;;;;5028288;28;20033;-85
2022/02/08 02:15:50;;;;;;;3.83;1.53;;;2.00;66.70;;;;;;5021729;28;20388;-85
2022/02/08 02:18:16;;;;;;;6.97;1.30;;;2.00;66.60;;;;;;5026302;28;20116;-85
2022/02/08 02:20:42;;;;;;;5.23;1.40;;;2.00;66.90;;;;;;5023792;28;20084;-85
2022/02/08 02:23:08;;;;;;;6.73;1.30;;;2.00;66.70;;;;;;5022867;28;20021;-85
2022/02/08 02:25:33;;;;;;;5.07;2.07;;;2.00;66.80;;;;;;5025144;28;20446;-85
2022/02/08 02:28:02;;;;;;;3.67;1.10;;;2.00;66.70;;;;;;5029024;28;20436;-85
2022/02/08 02:30:31;;;;;;;7.03;1.73;;;2.00;66.80;;;;;;5020980;28;20076;-85
2022/02/08 02:32:59;;;;;;;5.33;3.07;;;2.00;66.60;;;;;;5022789;28;20036;-85
2022/02/08 02:35:26;;;;;;;8.63;3.53;;;1.90;66.50;;;;;;5028217;28;20029;-85
2022/02/08 02:37:55;;;;;;;7.07;4.10;;;2.00;66.60;;;;;;5022786;28;20060;-85
2022/02/08 02:40:22;;;;;;;10.00;4.43;;;2.00;66.50;;;;;;5027559;28;20029;-85
2022/02/08 02:42:52;;;;;;;9.80;5.10;;;1.90;66.50;;;;;;5027589;28;20480;-85
2022/02/08 02:45:21;;;;;;;6.03;2.27;;;1.80;66.60;;;;;;5026091;28;20120;-84
2022/02/08 02:47:51;;;;;;;5.53;2.17;;;1.80;66.80;;;;;;5024120;28;20077;-85
2022/02/08 02:50:17;;;;;;;5.87;2.27;;;1.80;66.70;;;;;;5021109;28;20444;-85
2022/02/08 02:52:42;;;;;;;7.93;4.10;;;1.70;66.90;;;;;;5015743;28;20117;-85
2022/02/08 02:55:08;;;;;;;8.10;3.33;;;1.70;66.90;;;;;;5023529;28;20022;-85
2022/02/08 02:57:34;;;;;;;12.47;5.67;;;1.60;66.80;;;;;;5026672;28;20029;-85
2022/02/08 03:00:08;;;;;;;9.87;4.70;;;1.60;67.00;;;;;;5022565;28;20294;-85
2022/02/08 03:05:22;;;;;;;10.43;6.78;;;1.70;67.10;;;;;;5018493;28;20558;-85
2022/02/08 03:18:45;;;;;;;6.40;3.10;;;1.80;67.30;;;;;;5027297;28;20388;-85
2022/02/08 03:21:11;;;;;;;4.93;2.30;;;1.80;67.30;;;;;;5020837;28;20033;-85
2022/02/08 03:23:38;;;;;;;5.93;3.20;;;1.80;67.20;;;;;;5027561;28;20096;-85
2022/02/08 03:26:05;;;;;;;9.20;4.17;;;1.80;67.50;;;;;;5020871;28;20080;-85
2022/02/08 03:28:30;;;;;;;8.20;4.73;;;1.80;67.50;;;;;;5026847;28;20035;-85
2022/02/08 03:30:56;;;;;;;8.47;4.17;;;1.80;67.50;;;;;;5026385;28;20384;-85
2022/02/08 03:33:25;;;;;;;6.07;2.60;;;1.70;67.60;;;;;;5030894;28;20028;-85
2022/02/08 03:35:53;;;;;;;3.87;2.40;;;1.70;68.00;;;;;;5031537;28;20033;-84
2022/02/08 03:38:26;;;;;;;6.13;2.33;;;1.70;67.80;;;;;;5021978;28;20034;-85
2022/02/08 03:40:53;;;;;;;4.78;1.85;;;1.70;67.70;;;;;;5025417;28;20021;-85
2022/02/08 03:45:55;;;;;;;5.17;3.10;;;1.60;68.20;;;;;;5018587;28;20025;-85
2022/02/08 03:48:24;;;;;;;5.70;2.83;;;1.70;68.30;;;;;;5027242;28;20064;-85
2022/02/08 03:50:56;;;;;;;6.73;2.93;;;1.80;68.30;;;;;;5022033;28;20037;-85
2022/02/08 03:53:25;;;;;;;6.23;3.20;;;1.90;68.00;;;;;;5030609;28;20026;-85
2022/02/08 03:55:52;;;;;;;3.30;2.20;;;1.80;68.20;;;;;;5021135;28;20021;-85
2022/02/08 03:58:18;;;;;;;5.23;2.33;;;1.90;68.40;;;;;;5024967;28;20026;-85
2022/02/08 04:03:15;;;;;;;4.17;1.97;;;1.80;68.00;;;;;;5032539;28;20056;-85
2022/02/08 04:05:44;;;;;;;6.77;2.90;;;1.80;68.50;;;;;;5025382;28;20058;-85
2022/02/08 04:08:13;;;;;;;5.40;2.40;;;1.90;68.80;;;;;;5027037;28;20112;-85
2022/02/08 04:10:40;;;;;;;5.23;2.67;;;1.80;68.30;;;;;;5016440;28;20021;-85
2022/02/08 04:34:59;;;;;;;4.27;2.70;;;2.20;68.90;;;;;;5033980;28;20519;-86
2022/02/08 04:45:07;;;;;;;4.53;2.20;;;2.10;68.80;;;;;;5022523;28;20488;-83
2022/02/08 04:47:39;;;;;;;4.20;2.30;;;2.20;68.70;;;;;;5020534;28;20120;-84
2022/02/08 04:50:06;;;;;;;7.15;3.30;;;2.20;68.40;;;;;;5029007;28;20534;-84
2022/02/08 04:52:33;;;;;;;5.93;2.70;;;2.10;68.10;;;;;;5031905;28;20033;-85
2022/02/08 04:57:50;;;;;;;7.27;3.17;;;2.30;68.70;;;;;;5020735;28;20018;-85
2022/02/08 05:00:30;;;;;;;5.53;2.93;;;2.20;68.20;;;;;;5028049;28;20026;-86
2022/02/08 05:43:37;;;;;;;6.50;3.30;;;2.30;67.60;;;;;;5029575;28;20025;-84
2022/02/08 05:48:51;;;;;;;7.07;3.70;;;2.20;68.30;;;;;;5022166;28;20041;-85
2022/02/08 05:51:21;;;;;;;4.53;2.90;;;2.50;68.50;;;;;;5023086;28;20036;-83
2022/02/08 05:53:47;;;;;;;7.70;4.30;;;2.80;68.00;;;;;;5018362;28;20026;-84
2022/02/08 05:56:17;;;;;;;8.87;4.30;;;2.60;67.20;;;;;;5029845;28;20026;-85
2022/02/08 05:58:46;;;;;;;6.30;4.20;;;2.40;67.00;;;;;;5015944;28;20393;-85
2022/02/08 06:01:13;;;;;;;6.97;4.57;;;2.30;68.00;;;;;;5018479;28;20048;-85
2022/02/08 06:03:41;;;;;;;7.07;4.10;;;2.50;68.20;;;;;;5028771;28;20515;-85
2022/02/08 06:06:07;;;;;;;8.97;4.33;;;2.40;67.50;;;;;;5025932;28;20033;-84
2022/02/08 06:08:33;;;;;;;10.40;4.10;;;2.40;68.30;;;;;;5030572;28;20037;-85
2022/02/08 06:11:03;;;;;;;7.93;4.43;;;2.60;68.20;;;;;;5029167;28;20082;-85
2022/02/08 06:13:30;;;;;;;11.33;4.97;;;2.50;67.60;;;;;;5016120;28;20155;-85
2022/02/08 06:16:03;;;;;;;7.30;4.90;;;2.30;67.60;;;;;;5029102;28;20037;-85
2022/02/08 06:18:30;;;;;;;9.80;5.70;;;2.10;67.50;;;;;;5028026;28;20032;-85
2022/02/08 06:20:56;;;;;;;9.43;5.27;;;1.90;68.20;;;;;;5029969;28;20070;-85
2022/02/08 06:23:22;;;;;;;13.50;6.10;;;1.70;68.40;;;;;;5026377;28;20478;-85
2022/02/08 06:25:47;;;;;;;8.77;6.03;;;1.60;69.60;;;;;;5028630;28;20029;-85
2022/02/08 06:28:14;;;;;;;14.07;6.97;;;1.70;69.80;;;;;;5029024;28;20079;-85
2022/02/08 06:30:39;;;;;;;12.03;8.23;;;1.80;69.40;;;;;;5023463;28;20057;-85
2022/02/08 06:33:06;;;;;;;11.47;7.57;;;1.70;69.50;;;;;;5043031;28;20504;-85
2022/02/08 06:35:33;;;;;;;13.00;8.17;;;1.60;69.60;;;;;;5021337;28;20108;-85
2022/02/08 06:38:01;;;;;;;12.03;7.97;;;1.60;69.90;;;;;;5026930;28;20497;-85
2022/02/08 06:40:28;;;;;;;15.20;8.47;;;1.60;69.90;;;;;;5022873;28;20090;-85
2022/02/08 06:42:58;;;;;;;12.00;8.20;;;1.60;70.40;;;;;;5022942;28;20037;-85
2022/02/08 06:45:24;;;;;;;15.33;8.03;;;1.60;70.40;;;;;;5028856;28;20480;-85
2022/02/08 06:47:52;;;;;;;12.90;7.87;;;1.60;70.30;;;;;;5019723;28;20053;-85
2022/02/08 06:50:18;;;;;;;14.50;7.77;;;1.60;70.60;;;;;;5025672;28;20037;-85
2022/02/08 06:52:44;;;;;;;11.40;6.90;;;1.60;70.30;;;;;;5043582;28;20091;-85
2022/02/08 06:55:10;;;;;;;12.37;6.63;;;1.60;70.20;;;;;;5021574;28;20026;-85
2022/02/08 07:00:39;;;;;;;12.83;7.23;;;1.60;70.20;;;;;;5025314;28;20034;-85
2022/02/08 07:03:08;;;;;;;13.50;7.73;;;1.60;70.50;;;;;;5024452;28;20093;-86
2022/02/08 07:05:34;;;;;;;11.80;7.83;;;1.70;70.50;;;;;;5025412;28;20112;-85
2022/02/08 07:08:00;;;;;;;13.73;7.03;;;1.70;70.10;;;;;;5016928;28;20113;-86
2022/02/08 07:10:28;;;;;;;9.77;5.97;;;1.80;70.20;;;;;;5027561;28;20495;-85
2022/02/08 07:12:54;;;;;;;11.87;6.73;;;1.90;70.40;;;;;;5015166;28;20041;-86
2022/02/08 07:15:21;;;;;;;11.43;7.80;;;2.10;70.40;;;;;;5024495;28;20400;-85
2022/02/08 07:17:47;;;;;;;10.47;7.13;;;2.10;69.80;;;;;;5026164;28;20022;-85
2022/02/08 07:20:13;;;;;;;11.63;7.50;;;2.10;69.80;;;;;;5025152;28;20029;-85
2022/02/08 07:22:39;;;;;;;12.07;7.60;;;2.20;69.80;;;;;;5033800;28;20025;-85
2022/02/08 07:25:05;;;;;;;11.03;7.70;;;2.40;70.00;;;;;;5028150;28;20029;-85
2022/02/08 07:27:31;;;;;;;14.20;7.83;;;2.30;69.20;;;;;;5025710;28;20377;-86
2022/02/08 07:29:57;;;;;;;17.60;7.30;;;2.40;69.90;;;;;;5022438;28;20048;-86
2022/02/08 07:32:32;;;;;;;14.90;7.47;;;2.30;69.10;;;;;;5022701;28;20029;-86
2022/02/08 07:42:52;;;;;;;11.27;6.80;;;2.10;70.60;;;;;;5030418;28;20029;-86
2022/02/08 07:45:18;;;;;;;11.80;6.27;;;2.40;70.40;;;;;;5019807;28;20280;-86
2022/02/08 07:47:43;;;;;;;10.53;6.47;;;2.40;69.70;;;;;;5028790;28;20144;-86
2022/02/08 07:50:09;;;;;;;9.63;5.73;;;2.40;69.40;;;;;;5019440;28;20073;-86
2022/02/08 07:52:35;;;;;;;10.73;6.37;;;2.50;69.40;;;;;;5024834;28;20025;-86
2022/02/08 07:55:01;;;;;;;10.97;6.73;;;2.40;69.40;;;;;;5024349;28;20033;-86
2022/02/08 07:57:26;;;;;;;12.50;6.07;;;2.30;69.10;;;;;;5042588;28;20032;-86
2022/02/08 07:59:52;;;;;;;10.63;6.87;;;2.40;69.60;;;;;;5028597;28;20105;-86
2022/02/08 08:02:18;;;;;;;11.37;6.27;;;2.60;69.50;;;;;;5028433;28;20037;-85
2022/02/08 08:04:43;;;;;;;9.93;6.20;;;2.70;69.40;;;;;;5028215;28;20033;-86
2022/02/08 08:07:09;;;;;;;11.33;6.17;;;2.70;68.50;;;;;;5031347;28;20061;-86
2022/02/08 08:09:39;;;;;;;9.97;5.73;;;2.60;68.80;;;;;;5029532;28;20489;-86
2022/02/08 08:12:07;;;;;;;9.47;5.30;;;2.60;68.90;;;;;;5032624;28;20029;-86
2022/02/08 08:14:33;;;;;;;7.73;4.40;;;2.80;69.10;;;;;;5032856;28;20048;-86
2022/02/08 08:17:15;;;;;;;13.43;5.80;;;2.90;68.60;;;;;;5032388;28;20021;-86
2022/02/08 08:19:40;;;;;;;8.57;4.90;;;3.10;69.20;;;;;;5026900;28;20048;-86
2022/02/08 08:22:08;;;;;;;10.77;4.63;;;3.20;68.30;;;;;;5031263;28;20029;-86
2022/02/08 08:24:35;;;;;;;12.17;4.50;;;3.30;67.70;;;;;;5028558;28;20034;-86
2022/02/08 08:27:01;;;;;;;6.73;3.77;;;3.20;67.40;;;;;;5032221;28;20063;-86
2022/02/08 08:29:26;;;;;;;8.50;4.63;;;3.10;67.30;;;;;;5024859;28;20136;-86
2022/02/08 08:31:52;;;;;;;7.60;4.73;;;2.90;67.60;;;;;;5031613;28;20041;-86
2022/02/08 08:34:18;;;;;;;11.53;5.30;;;2.90;67.80;;;;;;5024464;28;20491;-86
2022/02/08 08:36:46;;;;;;;7.33;4.27;;;3.00;67.70;;;;;;5026509;28;20032;-86
2022/02/08 08:39:12;;;;;;;9.00;4.67;;;3.00;67.60;;;;;;5021408;28;20069;-86
2022/02/08 08:41:48;;;;;;;8.37;4.30;;;2.90;67.40;;;;;;5028888;28;20037;-86
2022/02/08 08:49:37;;;;;;;10.80;4.73;;;3.00;67.50;;;;;;5020121;28;20114;-86
2022/02/08 08:52:03;;;;;;;10.20;4.87;;;3.00;67.30;;;;;;5022721;28;20756;-86
2022/02/08 08:54:30;;;;;;;6.80;3.90;;;2.90;67.30;;;;;;5022805;28;20026;-86
2022/02/08 08:56:57;;;;;;;9.60;4.90;;;2.90;67.50;;;;;;5018257;28;20034;-86
2022/02/08 08:59:23;;;;;;;8.47;3.90;;;3.10;67.50;;;;;;5027577;28;20028;-86
2022/02/08 09:01:49;;;;;;;9.57;4.20;;;3.20;67.00;;;;;;5024056;28;20030;-86
2022/02/08 09:04:18;;;;;;;6.30;3.77;;;3.30;67.10;;;;;;5027988;28;20396;-86
2022/02/08 09:06:47;;;;;;;9.07;4.47;;;3.20;66.70;;;;;;5028111;28;20476;-86
2022/02/08 09:09:15;;;;;;;9.73;4.50;;;3.20;66.60;;;;;;5018258;28;20511;-86
2022/02/08 09:14:24;;;;;;;5.63;2.83;;;3.20;66.60;;;;;;5027523;28;20032;-86
2022/02/08 09:17:13;;;;;;;6.00;3.13;;;3.20;66.50;;;;;;5030625;28;20025;-86
2022/02/08 09:20:05;;;;;;;7.50;3.00;;;3.10;66.50;;;;;;5032856;28;20075;-86
2022/02/08 09:23:17;;;;;;;5.10;2.70;;;3.20;66.60;;;;;;5032904;28;20038;-86
2022/02/08 09:28:39;;;;;;;6.13;3.40;;;3.40;66.50;;;;;;5020113;28;20042;-86
2022/02/08 09:31:07;;;;;;;12.73;4.13;;;3.60;66.40;;;;;;5032972;28;20033;-86
2022/02/08 09:33:33;;;;;;;6.80;3.30;;;3.60;65.70;;;;;;5034403;28;20043;-86
2022/02/08 09:35:58;;;;;;;6.47;2.73;;;3.70;65.70;;;;;;5032732;28;20029;-86
2022/02/08 09:38:29;;;;;;;6.57;3.73;;;3.80;65.60;;;;;;5032691;28;20029;-86
2022/02/08 09:40:59;;;;;;;5.37;2.93;;;3.80;65.00;;;;;;5033472;28;20040;-86
2022/02/08 09:43:27;;;;;;;5.77;3.00;;;3.70;65.20;;;;;;5032647;28;20485;-86
2022/02/08 09:45:53;;;;;;;6.10;2.87;;;3.80;65.10;;;;;;5032869;28;20030;-87
2022/02/08 09:48:28;;;;;;;4.73;2.23;;;4.10;65.70;;;;;;5031986;28;20119;-87
2022/02/08 09:50:55;;;;;;;9.20;3.30;;;4.40;65.30;;;;;;5032462;28;20033;-87
2022/02/08 09:53:31;;;;;;;7.50;3.50;;;4.80;64.80;;;;;;5032765;28;20053;-87
2022/02/08 09:55:57;;;;;;;6.73;3.53;;;5.00;64.10;;;;;;5031419;28;20025;-87
2022/02/08 09:58:23;;;;;;;5.73;2.77;;;5.10;63.70;;;;;;5032698;28;20032;-88
2022/02/08 10:00:49;;;;;;;8.23;3.63;;;5.30;63.70;;;;;;5032667;28;20060;-87
2022/02/08 10:03:18;;;;;;;7.03;3.73;;;5.50;63.50;;;;;;5032099;28;20037;-87
2022/02/08 10:05:52;;;;;;;5.93;4.30;;;5.60;63.70;;;;;;5031763;28;20029;-87
2022/02/08 10:08:18;;;;;;;8.97;2.70;;;6.20;63.40;;;;;;5031502;28;20030;-88
2022/02/08 10:10:44;;;;;;;6.63;3.37;;;6.40;62.00;;;;;;5030164;28;20032;-88
2022/02/08 10:24:07;;;;;;;4.60;2.80;;;7.50;59.80;;;;;;5033336;28;20025;-87
2022/02/08 10:29:28;;;;;;;4.82;3.05;;;7.50;59.20;;;;;;5033798;28;20160;-88
2022/02/08 10:37:41;;;;;;;7.50;3.10;;;8.10;58.20;;;;;;5032348;28;20083;-88
2022/02/08 10:40:19;;;;;;;6.07;2.97;;;8.20;58.10;;;;;;5032113;28;20022;-88
2022/02/08 10:42:53;;;;;;;5.73;3.70;;;8.50;57.90;;;;;;5032000;28;20464;-88
2022/02/08 10:45:23;;;;;;;5.90;2.90;;;8.90;57.20;;;;;;5031808;28;20060;-88
2022/02/08 10:48:03;;;;;;;7.07;2.67;;;8.90;56.30;;;;;;5032485;28;20057;-87
2022/02/08 10:50:31;;;;;;;7.93;2.70;;;8.90;55.60;;;;;;5033064;28;20021;-89
2022/02/08 10:52:59;;;;;;;5.13;2.37;;;8.80;55.70;;;;;;5038877;28;20029;-87
2022/02/08 10:55:51;;;;;;;5.07;2.93;;;8.50;55.80;;;;;;5041184;28;20029;-87
2022/02/08 10:58:28;;;;;;;4.70;2.53;;;8.40;55.90;;;;;;5037560;28;20033;-87
2022/02/08 11:01:18;;;;;;;;;;;8.10;55.90;;;;;;5045736;28;20040;-87
2022/02/08 11:03:55;;;;;;;7.53;3.20;;;7.90;56.70;;;;;;5050209;28;19893;-85
2022/02/08 11:06:28;;;;;;;7.03;2.93;;;7.70;56.70;;;;;;5034842;28;20044;-88
2022/02/08 11:09:14;;;;;;;;;;;7.50;56.80;;;;;;5026497;28;20115;-88
2022/02/08 11:20:00;;;;;;;5.63;2.77;;;7.40;56.90;;;;;;5032467;28;20021;-88
2022/02/08 11:22:48;;;;;;;7.00;2.60;;;7.70;56.60;;;;;;5031999;28;20030;-88
2022/02/08 11:25:28;;;;;;;4.63;2.90;;;7.90;56.20;;;;;;5026927;28;20481;-88
2022/02/08 11:28:22;;;;;;;5.43;2.63;;;7.80;56.20;;;;;;5033542;28;20037;-88
2022/02/08 11:31:17;;;;;;;4.43;2.23;;;8.00;55.80;;;;;;5030958;28;20116;-88
2022/02/08 11:44:42;;;;;;;6.23;2.70;;;9.20;54.20;;;;;;5035972;28;20026;-90
2022/02/08 11:47:20;;;;;;;5.37;2.40;;;9.00;53.90;;;;;;5034206;28;20034;-89
2022/02/08 11:55:41;;;;;;;6.27;2.80;;;8.50;54.20;;;;;;5025739;28;20046;-89
2022/02/08 11:58:32;;;;;;;4.20;2.40;;;8.50;54.40;;;;;;5030417;28;20159;-88
2022/02/08 12:01:46;;;;;;;4.60;2.90;;;8.40;54.60;;;;;;5031428;28;20087;-88
2022/02/08 12:04:09;;;;;;;8.43;3.00;;;8.50;54.40;;;;;;5038106;28;20317;-89
2022/02/08 12:07:17;;;;;;;5.67;2.87;;;8.60;54.20;;;;;;5016748;28;20030;-89
2022/02/08 12:09:33;;;;;;;6.30;3.30;;;8.60;54.30;;;;;;5029470;28;20037;-89
2022/02/08 12:58:59;;;;;;;4.27;2.70;;;8.00;55.40;;;;;;5015528;28;20088;-88
2022/02/08 13:18:51;;;;;;;6.78;3.60;;;8.00;55.80;;;;;;5026548;28;20036;-88
2022/02/08 14:05:45;;;;;;;9.60;4.10;;;7.70;57.10;;;;;;5071585;28;20116;-85
2022/02/08 14:21:54;;;;;;;8.03;4.60;;;7.50;57.20;;;;;;5051595;28;20048;-85
2022/02/08 14:24:33;;;;;;;9.23;4.50;;;7.50;57.20;;;;;;5017937;28;20128;-84
2022/02/08 14:35:22;;;;;;;12.13;4.70;;;7.40;57.90;;;;;;5033100;28;20018;-84
2022/02/08 14:49:43;;;;;;;9.73;4.90;;;7.70;58.40;;;;;;5023098;28;20148;-72
2022/02/08 15:08:04;;;;;;;11.33;5.10;;;7.70;58.50;;;;;;5035854;28;20025;-71
2022/02/08 15:10:37;;;;;;;9.53;5.33;;;7.70;58.60;;;;;;5033535;28;20033;-71
2022/02/08 15:13:04;;;;;;;8.47;4.60;;;7.80;58.40;;;;;;5031039;28;20468;-71
2022/02/08 15:17:56;;;;;;;7.50;5.13;;;7.70;58.40;;;;;;5035560;28;20025;-72
2022/02/08 15:20:23;;;;;;;7.23;4.50;;;7.70;58.40;;;;;;5032412;28;20036;-71
2022/02/08 15:22:49;;;;;;;9.67;4.90;;;7.60;58.50;;;;;;5035007;28;20033;-71
2022/02/08 15:25:18;;;;;;;9.17;4.60;;;7.60;58.70;;;;;;5033993;28;20025;-71
2022/02/08 15:27:46;;;;;;;7.73;4.93;;;7.60;58.80;;;;;;5035318;28;20026;-72
2022/02/08 15:30:12;;;;;;;9.97;4.97;;;7.60;58.70;;;;;;5034847;28;20053;-72
2022/02/08 15:32:38;;;;;;;7.47;4.67;;;7.50;58.70;;;;;;5034022;28;20500;-72
2022/02/08 15:35:06;;;;;;;10.07;5.73;;;7.50;58.70;;;;;;5031502;28;20017;-72
2022/02/08 15:37:32;;;;;;;7.83;5.43;;;7.40;58.70;;;;;;5034557;28;20400;-73
2022/02/08 15:39:59;;;;;;;9.33;6.33;;;7.40;59.10;;;;;;5033159;28;20079;-72
2022/02/08 15:42:38;;;;;;;8.40;5.40;;;7.40;59.30;;;;;;5033200;28;20492;-72
2022/02/08 15:45:32;;;;;;;9.57;5.50;;;7.30;59.50;;;;;;5033630;28;20021;-72
2022/02/08 15:47:54;;;;;;;10.07;5.77;;;7.30;59.70;;;;;;5034635;28;20141;-73
2022/02/08 15:51:14;;;;;;;14.97;7.40;;;7.20;59.80;;;;;;5033664;28;20017;-73
2022/02/08 15:56:17;;;;;;;12.37;7.50;;;7.20;60.40;;;;;;5035096;28;20123;-73
2022/02/08 16:09:26;;;;;;;8.27;6.00;;;6.80;62.30;;;;;;5022230;28;20087;-73
2022/02/08 16:27:33;;;;;;;10.77;7.47;;;6.40;64.10;;;;;;5031017;28;20354;-72
2022/02/08 16:33:44;;;;;;;17.57;10.10;;;6.30;64.50;;;;;;5031642;28;20029;-72
2022/02/08 16:54:15;;;;;;;20.13;10.70;;;5.80;65.80;;;;;;5019288;28;20029;-70
2022/02/08 16:59:22;;;;;;;17.60;10.03;;;5.80;65.80;;;;;;5023374;28;20025;-70
2022/02/08 17:01:49;;;;;;;19.30;12.27;;;5.70;66.00;;;;;;5021969;28;20029;-70
2022/02/08 17:04:15;;;;;;;25.70;12.73;;;5.70;66.20;;;;;;5019316;28;20041;-71
2022/02/08 17:06:41;;;;;;;17.33;11.07;;;5.70;66.20;;;;;;5022468;28;20519;-70
2022/02/08 17:09:22;;;;;;;21.97;13.33;;;5.70;66.40;;;;;;5018390;28;20033;-70
2022/02/08 17:11:57;;;;;;;40.53;22.37;;;5.60;66.40;;;;;;5018517;28;20044;-71
2022/02/08 17:17:24;;;;;;;54.07;31.83;;;5.60;66.60;;;;;;5023545;28;20037;-71
2022/02/08 17:47:40;;;;;;;41.20;26.33;;;5.20;67.60;;;;;;5024207;28;20526;-72
2022/02/08 17:49:41;;;;;;;27.30;17.30;;;5.20;67.40;;;;;;5016951;28;20115;-71
2022/02/08 17:52:07;;;;;;;29.43;18.97;;;5.10;67.20;;;;;;5011872;28;20034;-71
2022/02/08 17:54:33;;;;;;;28.63;17.10;;;5.00;67.30;;;;;;5020079;28;20441;-71
2022/02/08 17:56:59;;;;;;;23.93;16.47;;;5.00;67.60;;;;;;5026449;28;20049;-72
2022/02/08 17:59:25;;;;;;;21.33;15.00;;;5.00;67.60;;;;;;5016353;28;20029;-71
2022/02/08 18:01:52;;;;;;;24.53;17.23;;;4.90;67.60;;;;;;5026739;28;20091;-71
2022/02/08 18:04:18;;;;;;;24.70;16.40;;;4.90;67.70;;;;;;5023421;28;20050;-71
2022/02/08 18:06:44;;;;;;;24.67;17.67;;;4.90;67.70;;;;;;5025317;28;20092;-71
2022/02/08 18:09:12;;;;;;;26.37;18.03;;;4.90;67.70;;;;;;5022302;28;20022;-71
2022/02/08 18:11:40;;;;;;;26.60;16.43;;;4.90;67.70;;;;;;5018121;28;20033;-71
2022/02/08 18:14:13;;;;;;;33.97;20.00;;;4.90;67.70;;;;;;5021783;28;20057;-72
2022/02/08 18:16:39;;;;;;;24.80;18.20;;;4.80;68.00;;;;;;5022769;28;20017;-71
2022/02/08 18:19:16;;;;;;;25.07;15.30;;;4.90;67.90;;;;;;5019636;28;20534;-71
2022/02/08 18:22:09;;;;;;;25.10;16.57;;;4.90;67.80;;;;;;5014775;28;20036;-71
2022/02/08 18:25:14;;;;;;;17.85;11.80;;;4.90;67.50;;;;;;5028434;28;20500;-70
2022/02/08 18:27:37;;;;;;;14.37;10.87;;;4.80;67.70;;;;;;5029957;28;20534;-72
2022/02/08 19:11:30;;;;;;;26.90;18.60;;;4.60;68.30;;;;;;5019428;28;20172;-75
2022/02/08 19:14:03;;;;;;;26.53;17.80;;;4.60;68.20;;;;;;5018666;28;20163;-72
2022/02/08 19:23:55;;;;;;;24.40;14.90;;;4.40;68.40;;;;;;5022956;28;20025;-72
2022/02/08 19:26:21;;;;;;;23.23;15.70;;;4.50;68.50;;;;;;5027665;28;20030;-71
2022/02/08 19:28:49;;;;;;;29.87;17.53;;;4.50;68.40;;;;;;5024264;28;20018;-71
2022/02/08 19:31:19;;;;;;;24.53;15.67;;;4.50;68.30;;;;;;5015160;28;20076;-72
2022/02/08 19:33:49;;;;;;;26.03;16.33;;;4.50;68.20;;;;;;5020980;28;20136;-71
2022/02/08 19:36:16;;;;;;;25.53;15.17;;;4.40;68.10;;;;;;5023875;28;20029;-71
2022/02/08 19:38:48;;;;;;;64.03;16.83;;;4.40;68.40;;;;;;5027356;28;20499;-71
2022/02/08 19:41:15;;;;;;;23.00;14.63;;;4.30;68.60;;;;;;5024215;28;20052;-71
2022/02/08 19:43:41;;;;;;;23.00;13.63;;;4.40;68.90;;;;;;5024022;28;20033;-72
2022/02/08 19:46:07;;;;;;;22.33;13.17;;;4.40;68.80;;;;;;5019611;28;20377;-71
2022/02/08 19:48:32;;;;;;;16.33;11.50;;;4.40;68.70;;;;;;5016581;28;20059;-71
2022/02/08 19:50:58;;;;;;;23.13;13.40;;;4.40;68.80;;;;;;5023451;28;20405;-70
2022/02/08 19:53:24;;;;;;;19.10;12.67;;;4.40;68.60;;;;;;5023794;28;20051;-71
2022/02/08 19:56:09;;;;;;;20.60;13.53;;;4.40;68.70;;;;;;5025045;28;20096;-71
2022/02/08 19:58:35;;;;;;;19.37;15.40;;;4.30;68.80;;;;;;5019650;28;20026;-72
2022/02/08 20:01:15;;;;;;;24.03;15.83;;;4.30;68.70;;;;;;5022825;28;20267;-71
2022/02/08 20:03:47;;;;;;;17.60;13.40;;;4.20;68.60;;;;;;5022436;28;20041;-71
2022/02/08 20:06:13;;;;;;;21.60;14.32;;;4.20;68.70;;;;;;5023316;28;20029;-70
2022/02/08 20:08:38;;;;;;;18.50;12.63;;;4.20;68.50;;;;;;5024841;28;20038;-75
2022/02/08 20:11:04;;;;;;;19.57;12.73;;;4.20;68.50;;;;;;5024355;28;20556;-75
2022/02/08 20:13:31;;;;;;;17.63;11.77;;;4.20;68.70;;;;;;5023775;28;20022;-75
2022/02/08 20:15:59;;;;;;;32.33;17.10;;;4.10;68.80;;;;;;5021170;28;20349;-75
2022/02/08 20:18:26;;;;;;;28.00;18.07;;;4.10;69.10;;;;;;5024474;28;20128;-75
2022/02/08 20:20:52;;;;;;;18.77;13.67;;;4.10;69.50;;;;;;5021063;28;20025;-74
2022/02/08 20:23:20;;;;;;;20.57;13.03;;;4.10;69.30;;;;;;5023664;28;20040;-74
2022/02/08 20:25:49;;;;;;;19.50;12.97;;;4.10;69.60;;;;;;5024943;28;20029;-77
2022/02/08 20:28:21;;;;;;;21.17;13.30;;;4.10;69.50;;;;;;5022819;28;20656;-74
2022/02/08 20:30:47;;;;;;;23.58;14.23;;;4.10;69.50;;;;;;5021852;28;20033;-75
2022/02/08 20:33:13;;;;;;;21.27;14.63;;;4.20;69.30;;;;;;5022676;28;20033;-75
2022/02/08 20:35:40;;;;;;;21.67;14.27;;;4.10;69.00;;;;;;5022623;28;20048;-75
2022/02/08 20:38:06;;;;;;;22.30;14.13;;;4.10;69.30;;;;;;5020286;28;20032;-75
2022/02/08 20:40:37;;;;;;;20.90;14.20;;;4.10;69.20;;;;;;5019270;28;20546;-74
2022/02/08 20:43:05;;;;;;;21.60;13.17;;;4.00;69.10;;;;;;5024858;28;20024;-74
2022/02/08 20:45:34;;;;;;;20.93;12.80;;;4.00;69.20;;;;;;5017192;28;20032;-75
2022/02/08 20:48:00;;;;;;;24.53;13.73;;;4.00;69.20;;;;;;5026617;28;20030;-77
2022/02/08 20:50:27;;;;;;;23.37;12.03;;;4.00;69.20;;;;;;5023991;28;20021;-76